createdAt,value
2018-07-09T00:00:58.684Z,77.91
2018-07-09T00:03:27.910Z,77.39
2018-07-09T00:05:56.780Z,77.85
2018-07-09T00:08:25.775Z,77.64
2018-07-09T00:11:00.495Z,77.30
2018-07-09T00:13:30.854Z,77.63
2018-07-09T00:16:00.088Z,77.59
2018-07-09T00:18:29.246Z,77.31
2018-07-09T00:20:58.428Z,77.85
2018-07-09T00:23:27.463Z,78.00
2018-07-09T00:25:57.282Z,77.76
2018-07-09T00:28:26.448Z,77.34
2018-07-09T00:30:55.573Z,77.55
2018-07-09T00:33:24.361Z,77.53
2018-07-09T00:35:53.389Z,78.09
2018-07-09T00:38:22.461Z,78.51
2018-07-09T00:40:51.378Z,78.48
2018-07-09T00:43:20.631Z,78.87
2018-07-09T00:45:49.726Z,78.63
2018-07-09T00:48:19.475Z,78.96
2018-07-09T00:50:48.297Z,79.00
2018-07-09T00:53:17.604Z,79.02
2018-07-09T00:55:46.703Z,78.94
2018-07-09T00:58:15.859Z,79.21
2018-07-09T01:00:44.900Z,79.00
2018-07-09T01:03:13.879Z,79.29
2018-07-09T01:05:42.898Z,79.37
2018-07-09T01:08:12.007Z,79.40
2018-07-09T01:10:52.019Z,80.17
2018-07-09T01:13:27.114Z,79.98
2018-07-09T01:15:56.176Z,80.19
2018-07-09T01:18:25.294Z,80.37
2018-07-09T01:20:54.906Z,80.74
2018-07-09T01:23:24.346Z,80.78
2018-07-09T01:25:53.338Z,80.99
2018-07-09T01:28:22.396Z,81.37
2018-07-09T01:30:51.696Z,81.73
2018-07-09T01:33:20.570Z,81.46
2018-07-09T01:35:49.748Z,81.93
2018-07-09T01:38:18.564Z,81.73
2018-07-09T01:40:47.377Z,81.65
2018-07-09T01:43:16.538Z,81.70
2018-07-09T01:45:45.796Z,81.53
2018-07-09T01:48:14.633Z,82.01
2018-07-09T01:50:43.427Z,82.20
2018-07-09T01:53:12.348Z,82.17
2018-07-09T01:55:41.248Z,82.33
2018-07-09T01:58:10.122Z,82.36
2018-07-09T02:00:39.170Z,83.18
2018-07-09T02:03:08.297Z,82.95
2018-07-09T02:05:37.791Z,82.97
2018-07-09T02:08:07.033Z,83.24
2018-07-09T02:10:36.039Z,83.54
2018-07-09T02:13:05.071Z,83.39
2018-07-09T02:15:34.902Z,83.12
2018-07-09T02:18:04.300Z,82.37
2018-07-09T02:20:33.065Z,82.62
2018-07-09T02:23:02.198Z,82.77
2018-07-09T02:25:31.213Z,82.74
2018-07-09T02:28:00.487Z,82.75
2018-07-09T02:30:29.546Z,82.75
2018-07-09T02:32:58.565Z,82.35
2018-07-09T02:35:28.505Z,82.25
2018-07-09T02:37:57.884Z,83.12
2018-07-09T02:40:27.581Z,83.26
2018-07-09T02:42:56.578Z,83.80
2018-07-09T02:45:25.351Z,83.75
2018-07-09T02:47:54.191Z,83.82
2018-07-09T02:50:23.249Z,84.31
2018-07-09T02:52:52.503Z,84.24
2018-07-09T02:55:21.648Z,84.05
2018-07-09T02:57:50.395Z,84.47
2018-07-09T03:00:19.572Z,84.43
2018-07-09T03:02:48.503Z,84.27
2018-07-09T03:05:17.613Z,84.75
2018-07-09T03:07:46.849Z,84.71
2018-07-09T03:10:15.599Z,84.57
2018-07-09T03:12:44.613Z,85.06
2018-07-09T03:15:13.352Z,85.03
2018-07-09T03:17:42.995Z,85.09
2018-07-09T03:20:12.480Z,84.86
2018-07-09T03:22:41.619Z,85.72
2018-07-09T03:25:10.690Z,85.18
2018-07-09T03:27:39.486Z,85.81
2018-07-09T03:30:08.299Z,85.88
2018-07-09T03:32:37.419Z,86.14
2018-07-09T03:35:06.241Z,87.91
2018-07-09T03:37:34.988Z,88.56
2018-07-09T03:40:03.760Z,88.55
2018-07-09T03:42:32.641Z,88.59
2018-07-09T03:45:01.714Z,88.79
2018-07-09T03:47:30.461Z,89.00
2018-07-09T03:49:59.642Z,89.02
2018-07-09T03:52:28.667Z,88.54
2018-07-09T03:54:57.427Z,88.79
2018-07-09T03:57:26.515Z,88.42
2018-07-09T03:59:55.592Z,88.92
2018-07-09T04:02:24.701Z,88.78
2018-07-09T04:04:53.462Z,88.65
2018-07-09T04:07:22.382Z,88.37
2018-07-09T04:09:51.132Z,88.45
2018-07-09T04:12:20.564Z,88.22
2018-07-09T04:14:49.978Z,87.87
2018-07-09T04:17:19.037Z,88.28
2018-07-09T04:19:48.186Z,88.01
2018-07-09T04:22:17.548Z,88.35
2018-07-09T04:24:46.636Z,88.64
2018-07-09T04:27:15.763Z,88.61
2018-07-09T04:29:44.767Z,89.11
2018-07-09T04:32:13.553Z,88.80
2018-07-09T04:34:42.339Z,89.37
2018-07-09T04:37:11.424Z,89.49
2018-07-09T04:39:40.253Z,89.32
2018-07-09T04:42:09.083Z,89.47
2018-07-09T04:44:38.158Z,89.90
2018-07-09T04:47:08.024Z,89.87
2018-07-09T04:49:37.801Z,89.89
2018-07-09T04:52:07.488Z,89.56
2018-07-09T04:54:37.091Z,89.83
2018-07-09T04:57:06.895Z,90.25
2018-07-09T04:59:36.960Z,90.15
2018-07-09T05:02:05.992Z,90.57
2018-07-09T05:04:35.264Z,90.39
2018-07-09T05:07:04.355Z,90.38
2018-07-09T05:09:33.159Z,90.36
2018-07-09T05:12:02.660Z,91.11
2018-07-09T05:14:31.723Z,91.12
2018-07-09T05:17:00.846Z,91.99
2018-07-09T05:19:29.762Z,91.61
2018-07-09T05:21:58.815Z,91.93
2018-07-09T05:24:28.082Z,92.06
2018-07-09T05:26:56.975Z,92.51
2018-07-09T05:29:26.179Z,92.38
2018-07-09T05:31:55.031Z,92.74
2018-07-09T05:34:24.324Z,93.38
2018-07-09T05:36:53.181Z,92.91
2018-07-09T05:39:22.649Z,93.25
2018-07-09T05:41:52.278Z,93.41
2018-07-09T05:44:21.123Z,94.19
2018-07-09T05:46:50.227Z,94.01
2018-07-09T05:49:19.369Z,94.71
2018-07-09T05:51:48.780Z,94.20
2018-07-09T05:54:18.766Z,94.30
2018-07-09T05:56:47.608Z,94.29
2018-07-09T05:59:16.652Z,93.77
2018-07-09T06:01:45.627Z,93.70
2018-07-09T06:04:14.735Z,93.64
2018-07-09T06:06:43.599Z,94.03
2018-07-09T06:09:12.894Z,93.66
2018-07-09T06:11:41.898Z,93.51
2018-07-09T06:14:11.385Z,93.31
2018-07-09T06:16:40.497Z,93.00
2018-07-09T06:19:09.604Z,92.18
2018-07-09T06:21:38.708Z,91.90
2018-07-09T06:24:08.416Z,92.05
2018-07-09T06:26:38.059Z,92.10
2018-07-09T06:29:07.199Z,92.23
2018-07-09T06:31:36.365Z,92.26
2018-07-09T06:34:05.159Z,92.25
2018-07-09T06:36:34.591Z,91.37
2018-07-09T06:39:03.785Z,91.40
2018-07-09T06:41:32.567Z,90.93
2018-07-09T06:44:01.541Z,91.57
2018-07-09T06:46:31.109Z,91.06
2018-07-09T06:48:59.921Z,90.98
2018-07-09T06:51:28.723Z,91.20
2018-07-09T06:53:58.065Z,91.01
2018-07-09T06:56:26.890Z,90.12
2018-07-09T06:58:55.702Z,90.51
2018-07-09T07:01:24.820Z,90.77
2018-07-09T07:03:53.663Z,90.07
2018-07-09T07:06:23.166Z,90.25
2018-07-09T07:08:52.661Z,89.24
2018-07-09T07:11:21.754Z,89.24
2018-07-09T07:13:51.222Z,88.96
2018-07-09T07:16:20.056Z,88.05
2018-07-09T07:18:49.417Z,87.78
2018-07-09T07:21:18.321Z,87.26
2018-07-09T07:23:47.513Z,86.44
2018-07-09T07:26:16.382Z,86.76
2018-07-09T07:28:45.139Z,86.17
2018-07-09T07:31:14.376Z,86.66
2018-07-09T07:33:43.169Z,85.81
2018-07-09T07:36:12.086Z,85.75
2018-07-09T07:38:41.171Z,85.78
2018-07-09T07:41:10.593Z,85.99
2018-07-09T07:43:39.433Z,85.05
2018-07-09T07:46:09.022Z,84.96
2018-07-09T07:48:38.507Z,85.00
2018-07-09T07:51:07.437Z,83.99
2018-07-09T07:53:36.565Z,83.42
2018-07-09T07:56:05.625Z,83.53
2018-07-09T07:58:34.683Z,83.19
2018-07-09T08:01:03.723Z,83.54
2018-07-09T08:03:32.847Z,82.84
2018-07-09T08:06:01.859Z,83.22
2018-07-09T08:08:30.612Z,83.00
2018-07-09T08:11:10.909Z,81.99
2018-07-09T08:13:29.227Z,82.27
2018-07-09T08:15:57.748Z,82.65
2018-07-09T08:18:26.801Z,82.31
2018-07-09T08:20:55.703Z,82.32
2018-07-09T08:23:24.562Z,82.67
2018-07-09T08:25:56.036Z,81.97
2018-07-09T08:28:24.851Z,82.39
2018-07-09T08:30:53.960Z,81.32
2018-07-09T08:33:23.563Z,80.28
2018-07-09T08:35:52.403Z,80.50
2018-07-09T08:38:21.171Z,80.14
2018-07-09T08:40:50.363Z,80.05
2018-07-09T08:43:19.540Z,76.82
2018-07-09T08:45:48.346Z,76.31
2018-07-09T08:48:17.490Z,75.91
2018-07-09T08:50:46.261Z,75.91
2018-07-09T08:53:15.629Z,75.05
2018-07-09T08:55:44.922Z,75.29
2018-07-09T08:58:14.280Z,74.96
2018-07-09T09:00:43.688Z,74.73
2018-07-09T09:03:12.833Z,72.54
2018-07-09T09:05:41.881Z,72.63
2018-07-09T09:08:10.720Z,70.92
2018-07-09T09:10:39.489Z,69.17
2018-07-09T09:13:08.612Z,69.58
2018-07-09T09:15:37.692Z,69.30
2018-07-09T09:18:06.520Z,69.14
2018-07-09T09:20:35.727Z,69.70
2018-07-09T09:23:04.576Z,68.81
2018-07-09T09:25:33.394Z,68.58
2018-07-09T09:28:02.202Z,69.16
2018-07-09T09:30:31.191Z,68.15
2018-07-09T09:33:00.195Z,68.36
2018-07-09T09:35:29.568Z,67.60
2018-07-09T09:37:58.850Z,67.82
2018-07-09T09:40:27.640Z,68.52
2018-07-09T09:42:56.448Z,68.29
2018-07-09T09:45:25.409Z,67.87
2018-07-09T09:47:54.665Z,67.97
2018-07-09T09:50:23.743Z,67.08
2018-07-09T09:52:53.396Z,66.55
2018-07-09T09:55:22.910Z,67.41
2018-07-09T09:57:52.330Z,66.63
2018-07-09T10:00:25.220Z,67.51
2018-07-09T10:02:54.245Z,67.44
2018-07-09T10:05:23.404Z,67.99
2018-07-09T10:07:52.347Z,67.04
2018-07-09T10:10:21.203Z,67.77
2018-07-09T10:12:50.209Z,67.90
2018-07-09T10:15:19.480Z,68.04
2018-07-09T10:17:48.306Z,66.26
2018-07-09T10:20:17.142Z,65.82
2018-07-09T10:22:50.333Z,65.73
2018-07-09T10:25:19.707Z,65.51
2018-07-09T10:27:48.805Z,65.51
2018-07-09T10:30:18.294Z,65.12
2018-07-09T10:32:47.717Z,64.23
2018-07-09T10:35:17.115Z,65.24
2018-07-09T10:37:46.259Z,63.24
2018-07-09T10:40:15.053Z,63.14
2018-07-09T10:42:45.108Z,62.81
2018-07-09T10:45:14.212Z,63.90
2018-07-09T10:47:43.002Z,62.76
2018-07-09T10:50:12.824Z,62.87
2018-07-09T10:52:41.932Z,62.95
2018-07-09T10:55:11.212Z,63.03
2018-07-09T10:57:40.618Z,61.97
2018-07-09T11:00:09.891Z,62.36
2018-07-09T11:02:38.733Z,62.00
2018-07-09T11:05:07.915Z,61.29
2018-07-09T11:07:36.700Z,61.50
2018-07-09T11:10:06.136Z,62.33
2018-07-09T11:12:34.944Z,61.75
2018-07-09T11:15:03.991Z,61.92
2018-07-09T11:17:33.391Z,61.94
2018-07-09T11:20:02.999Z,63.28
2018-07-09T11:22:32.503Z,64.39
2018-07-09T11:25:01.295Z,63.92
2018-07-09T11:27:30.638Z,64.52
2018-07-09T11:30:00.024Z,67.16
2018-07-09T11:32:29.372Z,68.34
2018-07-09T11:34:58.683Z,70.80
2018-07-09T11:37:28.143Z,71.60
2018-07-09T11:39:56.981Z,71.80
2018-07-09T11:42:26.129Z,72.35
2018-07-09T11:44:55.477Z,72.84
2018-07-09T11:47:24.871Z,71.69
2018-07-09T11:49:53.945Z,71.36
2018-07-09T11:52:23.067Z,70.73
2018-07-09T11:54:52.226Z,70.18
2018-07-09T11:57:21.025Z,69.25
2018-07-09T11:59:50.089Z,69.58
2018-07-09T12:02:18.865Z,69.63
2018-07-09T12:04:47.797Z,70.64
2018-07-09T12:07:16.579Z,71.45
2018-07-09T12:09:45.737Z,70.65
2018-07-09T12:12:15.098Z,71.23
2018-07-09T12:14:43.947Z,71.12
2018-07-09T12:17:13.448Z,70.37
2018-07-09T12:19:42.790Z,69.76
2018-07-09T12:22:11.944Z,68.68
2018-07-09T12:24:41.400Z,68.28
2018-07-09T12:27:26.444Z,69.17
2018-07-09T12:29:55.967Z,69.67
2018-07-09T12:32:25.447Z,69.50
2018-07-09T12:34:54.310Z,69.80
2018-07-09T12:37:23.572Z,70.67
2018-07-09T12:39:52.707Z,68.39
2018-07-09T12:42:22.148Z,68.49
2018-07-09T12:44:51.103Z,68.54
2018-07-09T12:47:19.983Z,67.35
2018-07-09T12:49:48.929Z,67.91
2018-07-09T12:52:18.116Z,67.38
2018-07-09T12:54:47.839Z,65.89
2018-07-09T12:57:16.721Z,65.28
2018-07-09T12:59:46.247Z,65.29
2018-07-09T13:02:15.800Z,65.22
2018-07-09T13:04:45.244Z,65.23
2018-07-09T13:07:15.061Z,65.78
2018-07-09T13:09:43.944Z,67.01
2018-07-09T13:12:13.129Z,66.51
2018-07-09T13:14:42.373Z,66.96
2018-07-09T13:17:11.478Z,67.23
2018-07-09T13:19:40.930Z,66.80
2018-07-09T13:22:09.854Z,67.42
2018-07-09T13:24:38.688Z,66.80
2018-07-09T13:27:08.178Z,66.40
2018-07-09T13:29:37.066Z,65.26
2018-07-09T13:32:06.231Z,65.71
2018-07-09T13:34:35.629Z,65.55
2018-07-09T13:37:05.418Z,66.39
2018-07-09T13:39:35.106Z,66.59
2018-07-09T13:42:07.586Z,67.75
2018-07-09T13:44:37.036Z,70.43
2018-07-09T13:47:06.110Z,72.54
2018-07-09T13:49:35.289Z,73.22
2018-07-09T13:52:04.505Z,73.64
2018-07-09T13:54:33.757Z,73.50
2018-07-09T13:57:02.644Z,73.93
2018-07-09T13:59:31.779Z,74.28
2018-07-09T14:02:00.975Z,74.37
2018-07-09T14:04:30.388Z,74.04
2018-07-09T14:06:59.289Z,73.79
2018-07-09T14:09:28.238Z,75.86
2018-07-09T14:11:57.086Z,76.68
2018-07-09T14:14:26.187Z,76.92
2018-07-09T14:16:55.110Z,75.43
2018-07-09T14:20:34.490Z,75.04
2018-07-09T14:23:04.268Z,74.89
2018-07-09T14:25:33.505Z,75.08
2018-07-09T14:28:02.934Z,75.13
2018-07-09T14:30:32.468Z,74.86
2018-07-09T14:33:05.200Z,75.29
2018-07-09T14:35:34.385Z,75.97
2018-07-09T14:38:03.291Z,75.22
2018-07-09T14:40:32.163Z,75.41
2018-07-09T14:43:01.087Z,75.75
2018-07-09T14:45:30.278Z,74.98
2018-07-09T14:47:59.180Z,74.77
2018-07-09T14:50:28.488Z,75.06
2018-07-09T14:52:57.653Z,75.12
2018-07-09T14:55:26.847Z,75.42
2018-07-09T14:57:55.769Z,75.70
2018-07-09T15:00:24.732Z,75.66
2018-07-09T15:02:54.506Z,75.92
2018-07-09T15:05:23.645Z,76.53
2018-07-09T15:07:53.763Z,76.46
2018-07-09T15:10:22.981Z,75.69
2018-07-09T15:12:51.856Z,75.67
2018-07-09T15:15:20.787Z,74.48
2018-07-09T15:17:50.606Z,75.10
2018-07-09T15:20:19.764Z,74.42
2018-07-09T15:22:48.685Z,73.61
2018-07-09T15:25:17.587Z,74.02
2018-07-09T15:27:46.939Z,73.56
2018-07-09T15:30:16.107Z,73.93
2018-07-09T15:32:44.975Z,73.53
2018-07-09T15:35:14.168Z,74.11
2018-07-09T15:37:43.697Z,74.32
2018-07-09T15:40:12.568Z,74.62
2018-07-09T15:42:41.722Z,73.76
2018-07-09T15:45:10.593Z,74.84
2018-07-09T15:47:39.567Z,74.02
2018-07-09T15:50:08.466Z,72.77
2018-07-09T15:52:37.661Z,72.10
2018-07-09T15:55:06.621Z,70.66
2018-07-09T15:57:35.500Z,70.22
2018-07-09T16:00:04.481Z,70.54
2018-07-09T16:02:33.356Z,69.45
2018-07-09T16:05:02.249Z,69.03
2018-07-09T16:07:31.463Z,68.12
2018-07-09T16:10:00.981Z,68.27
2018-07-09T16:12:30.135Z,68.13
2018-07-09T16:14:59.385Z,68.87
2018-07-09T16:17:28.502Z,68.49
2018-07-09T16:19:57.789Z,69.13
2018-07-09T16:22:27.016Z,68.79
2018-07-09T16:24:56.479Z,69.36
2018-07-09T16:27:25.840Z,68.41
2018-07-09T16:29:55.097Z,69.61
2018-07-09T16:32:24.500Z,68.69
2018-07-09T16:34:53.998Z,67.79
2018-07-09T16:37:22.888Z,65.45
2018-07-09T16:39:52.117Z,65.10
2018-07-09T16:42:21.049Z,65.12
2018-07-09T16:44:50.255Z,65.39
2018-07-09T16:47:19.474Z,65.71
2018-07-09T16:49:48.664Z,65.71
2018-07-09T16:52:17.527Z,64.09
2018-07-09T16:54:47.166Z,64.22
2018-07-09T16:57:16.005Z,63.52
2018-07-09T16:59:45.506Z,62.89
2018-07-09T17:02:14.700Z,62.65
2018-07-09T17:04:43.823Z,62.18
2018-07-09T17:07:12.770Z,62.71
2018-07-09T17:09:42.414Z,62.78
2018-07-09T17:12:11.576Z,63.51
2018-07-09T17:14:40.488Z,62.43
2018-07-09T17:17:09.369Z,63.14
2018-07-09T17:19:38.344Z,63.75
2018-07-09T17:22:11.703Z,63.67
2018-07-09T17:24:40.663Z,64.09
2018-07-09T17:27:09.678Z,63.61
2018-07-09T17:29:38.583Z,63.76
2018-07-09T17:32:07.959Z,64.54
2018-07-09T17:34:36.920Z,64.57
2018-07-09T17:37:06.540Z,64.92
2018-07-09T17:39:35.756Z,64.51
2018-07-09T17:42:04.659Z,64.14
2018-07-09T17:44:33.613Z,64.16
2018-07-09T17:47:02.516Z,64.08
2018-07-09T17:49:32.043Z,64.28
2018-07-09T17:52:01.206Z,63.44
2018-07-09T17:54:30.557Z,63.67
2018-07-09T17:57:00.220Z,63.64
2018-07-09T17:59:30.155Z,63.12
2018-07-09T18:01:59.700Z,63.15
2018-07-09T18:04:28.906Z,63.16
2018-07-09T18:06:57.769Z,63.34
2018-07-09T18:09:26.709Z,64.01
2018-07-09T18:11:55.545Z,63.68
2018-07-09T18:14:24.783Z,63.87
2018-07-09T18:16:53.919Z,63.55
2018-07-09T18:19:23.498Z,64.94
2018-07-09T18:21:52.714Z,65.16
2018-07-09T18:24:21.632Z,65.82
2018-07-09T18:26:51.370Z,64.93
2018-07-09T18:29:20.641Z,64.70
2018-07-09T18:31:50.040Z,65.10
2018-07-09T18:34:19.383Z,64.74
2018-07-09T18:36:48.522Z,65.21
2018-07-09T18:39:18.881Z,65.81
2018-07-09T18:41:50.668Z,65.95
2018-07-09T18:44:21.081Z,66.69
2018-07-09T18:46:51.178Z,66.61
2018-07-09T18:49:20.921Z,66.15
2018-07-09T18:51:51.144Z,66.96
2018-07-09T18:54:22.404Z,67.33
2018-07-09T18:56:52.596Z,67.01
2018-07-09T18:59:23.247Z,67.09
2018-07-09T19:01:53.433Z,66.85
2018-07-09T19:04:24.509Z,66.65
2018-07-09T19:06:58.243Z,66.76
2018-07-09T19:09:29.971Z,67.71
2018-07-09T19:12:02.554Z,67.86
2018-07-09T19:14:37.502Z,66.98
2018-07-09T19:18:03.659Z,67.45
2018-07-09T19:20:44.999Z,67.18
2018-07-09T19:23:14.656Z,67.57
2018-07-09T19:25:44.099Z,67.66
2018-07-09T19:28:12.658Z,67.50
2018-07-09T19:30:41.319Z,67.53
2018-07-09T19:33:09.848Z,67.43
2018-07-09T19:35:38.267Z,67.46
2018-07-09T19:38:06.409Z,67.30
2018-07-09T19:40:34.633Z,66.88
2018-07-09T19:43:02.262Z,66.62
2018-07-09T19:45:29.982Z,67.16
2018-07-09T19:47:57.546Z,66.45
2018-07-09T19:50:25.074Z,66.17
2018-07-09T19:52:52.583Z,66.46
2018-07-09T19:55:20.274Z,66.89
2018-07-09T19:57:47.784Z,67.05
2018-07-09T20:00:15.253Z,67.06
2018-07-09T20:02:50.415Z,67.22
2018-07-09T20:05:17.863Z,66.83
2018-07-09T20:07:45.980Z,66.66
2018-07-09T20:10:18.712Z,66.72
2018-07-09T20:12:51.286Z,66.93
2018-07-09T20:15:23.821Z,66.70
2018-07-09T20:17:51.287Z,67.03
2018-07-09T20:20:19.010Z,67.14
2018-07-09T20:22:46.786Z,67.21
2018-07-09T20:25:14.600Z,67.25
2018-07-09T20:27:42.382Z,66.84
2018-07-09T20:30:09.835Z,67.27
2018-07-09T20:32:37.594Z,67.37
2018-07-09T20:35:05.359Z,67.57
2018-07-09T20:37:32.913Z,67.15
2018-07-09T20:40:00.741Z,67.33
2018-07-09T20:42:28.166Z,67.75
2018-07-09T20:44:56.325Z,67.96
2018-07-09T20:47:23.851Z,68.28
2018-07-09T20:49:51.560Z,68.49
2018-07-09T20:52:19.074Z,68.97
2018-07-09T20:54:46.582Z,69.31
2018-07-09T20:57:14.885Z,69.74
2018-07-09T20:59:42.817Z,70.19
2018-07-09T21:02:10.251Z,70.75
2018-07-09T21:04:38.037Z,70.89
2018-07-09T21:07:05.591Z,70.47
2018-07-09T21:09:34.092Z,71.54
2018-07-09T21:12:08.950Z,71.41
2018-07-09T21:14:36.451Z,71.95
2018-07-09T21:17:04.160Z,72.04
2018-07-09T21:19:31.910Z,71.92
2018-07-09T21:21:59.471Z,72.24
2018-07-09T21:24:27.155Z,75.10
2018-07-09T21:26:54.619Z,76.22
2018-07-09T21:29:22.396Z,78.78
2018-07-09T21:31:49.879Z,79.75
2018-07-09T21:34:17.723Z,81.52
2018-07-09T21:36:45.171Z,82.83
2018-07-09T21:39:12.893Z,84.09
2018-07-09T21:41:41.410Z,84.21
2018-07-09T21:44:09.438Z,84.11
2018-07-09T21:46:37.133Z,84.84
2018-07-09T21:49:04.559Z,85.69
2018-07-09T21:51:32.067Z,86.54
2018-07-09T21:53:59.739Z,86.55
2018-07-09T21:56:27.310Z,87.05
2018-07-09T21:58:55.006Z,87.90
2018-07-09T22:01:22.485Z,88.25
2018-07-09T22:03:50.170Z,89.01
2018-07-09T22:06:17.615Z,88.89
2018-07-09T22:08:45.194Z,88.87
2018-07-09T22:11:12.654Z,88.31
2018-07-09T22:13:40.373Z,88.41
2018-07-09T22:16:08.340Z,88.49
2018-07-09T22:18:36.145Z,88.06
2018-07-09T22:21:03.579Z,87.72
2018-07-09T22:23:32.070Z,87.17
2018-07-09T22:25:59.978Z,87.46
2018-07-09T22:28:27.406Z,87.92
2018-07-09T22:30:56.193Z,87.53
2018-07-09T22:33:26.210Z,88.19
2018-07-09T22:35:54.982Z,88.20
2018-07-09T22:38:23.779Z,88.48
2018-07-09T22:40:52.845Z,88.68
2018-07-09T22:43:33.174Z,88.68
2018-07-09T22:46:02.266Z,88.28
2018-07-09T22:48:31.137Z,88.12
2018-07-09T22:51:00.470Z,87.88
2018-07-09T22:53:29.666Z,87.66
2018-07-09T22:56:11.497Z,87.25
2018-07-09T22:58:41.702Z,86.75
2018-07-09T23:01:10.537Z,86.59
2018-07-09T23:03:39.494Z,86.23
2018-07-09T23:06:08.783Z,86.32
2018-07-09T23:08:37.646Z,85.70
2018-07-09T23:11:17.837Z,86.17
2018-07-09T23:14:57.501Z,86.10
2018-07-09T23:17:37.600Z,86.38
2018-07-09T23:20:55.649Z,86.56
2018-07-09T23:23:27.474Z,86.36
2018-07-09T23:25:55.056Z,86.87
2018-07-09T23:28:22.804Z,86.86
2018-07-09T23:30:50.293Z,87.33
2018-07-09T23:33:18.604Z,87.16
2018-07-09T23:35:46.127Z,87.29
2018-07-09T23:38:13.843Z,87.47
2018-07-09T23:40:41.303Z,88.29
2018-07-09T23:43:08.797Z,87.66
2018-07-09T23:45:36.359Z,87.80
2018-07-09T23:48:03.804Z,87.93
2018-07-09T23:50:31.590Z,88.47
2018-07-09T23:53:00.105Z,87.82
2018-07-09T23:55:31.006Z,87.78
